createdAt,value
2023-05-13T00:00:23.876Z,13.49
2023-05-13T00:03:26.776Z,13.72
2023-05-13T00:06:29.586Z,13.81
2023-05-13T00:09:33.655Z,13.80
2023-05-13T00:12:37.095Z,13.71
2023-05-13T00:15:40.325Z,13.45
2023-05-13T00:18:42.980Z,13.63
2023-05-13T00:21:45.635Z,13.60
2023-05-13T00:24:49.580Z,13.54
2023-05-13T00:27:52.223Z,13.54
2023-05-13T00:30:55.276Z,13.38
2023-05-13T00:33:57.850Z,13.43
2023-05-13T00:37:00.998Z,13.34
2023-05-13T00:40:05.515Z,13.34
2023-05-13T00:43:08.121Z,13.46
2023-05-13T00:46:10.855Z,13.38
2023-05-13T00:49:13.548Z,13.24
2023-05-13T00:52:16.166Z,13.27
2023-05-13T00:55:20.195Z,13.01
2023-05-13T00:58:22.823Z,12.92
2023-05-13T01:01:34.121Z,13.07
2023-05-13T01:04:45.385Z,13.17
2023-05-13T01:07:57.691Z,13.01
2023-05-13T01:11:05.147Z,12.92
2023-05-13T01:14:12.497Z,12.98
2023-05-13T01:17:19.364Z,12.85
2023-05-13T01:20:24.507Z,12.87
2023-05-13T01:23:28.553Z,12.84
2023-05-13T01:26:31.301Z,12.83
2023-05-13T01:29:34.253Z,12.77
2023-05-13T01:32:38.488Z,12.84
2023-05-13T01:35:41.306Z,12.66
2023-05-13T01:38:45.983Z,12.77
2023-05-13T01:41:48.610Z,12.47
2023-05-13T01:44:52.580Z,12.64
2023-05-13T01:47:55.173Z,12.58
2023-05-13T01:50:57.790Z,12.50
2023-05-13T01:54:01.738Z,12.57
2023-05-13T01:57:04.649Z,12.57
2023-05-13T02:00:08.666Z,12.47
2023-05-13T02:03:11.336Z,12.57
2023-05-13T02:06:14.013Z,12.38
2023-05-13T02:09:17.942Z,12.30
2023-05-13T02:12:20.615Z,12.36
2023-05-13T02:15:23.256Z,12.46
2023-05-13T02:18:25.917Z,12.31
2023-05-13T02:21:28.523Z,11.93
2023-05-13T02:24:32.566Z,12.15
2023-05-13T02:27:35.162Z,12.28
2023-05-13T02:30:37.929Z,12.31
2023-05-13T02:33:40.521Z,12.33
2023-05-13T02:36:43.118Z,12.23
2023-05-13T02:39:47.049Z,12.30
2023-05-13T02:42:49.844Z,12.09
2023-05-13T02:45:52.528Z,12.19
2023-05-13T02:48:55.117Z,11.96
2023-05-13T02:51:57.737Z,12.08
2023-05-13T02:55:01.817Z,11.86
2023-05-13T02:58:04.491Z,12.02
2023-05-13T03:01:07.217Z,11.99
2023-05-13T03:04:09.878Z,12.05
2023-05-13T03:07:12.453Z,11.86
2023-05-13T03:10:16.460Z,11.93
2023-05-13T03:13:19.117Z,12.05
2023-05-13T03:16:21.729Z,11.93
2023-05-13T03:19:25.021Z,12.01
2023-05-13T03:22:27.796Z,11.94
2023-05-13T03:25:31.730Z,11.65
2023-05-13T03:28:34.365Z,11.78
2023-05-13T03:31:37.060Z,11.83
2023-05-13T03:34:39.713Z,11.72
2023-05-13T03:37:42.295Z,11.89
2023-05-13T03:40:46.943Z,11.86
2023-05-13T03:43:49.529Z,12.03
2023-05-13T03:46:52.222Z,11.90
2023-05-13T03:49:54.878Z,11.69
2023-05-13T03:52:57.875Z,11.67
2023-05-13T03:56:01.824Z,11.75
2023-05-13T03:59:04.422Z,11.81
2023-05-13T04:02:07.315Z,11.92
2023-05-13T04:05:10.897Z,11.80
2023-05-13T04:08:13.782Z,11.84
2023-05-13T04:11:17.755Z,11.94
2023-05-13T04:14:20.875Z,11.67
2023-05-13T04:17:23.476Z,11.70
2023-05-13T04:20:26.434Z,11.72
2023-05-13T04:23:29.005Z,11.75
2023-05-13T04:26:33.095Z,11.95
2023-05-13T04:29:35.638Z,11.66
2023-05-13T04:32:39.150Z,11.76
2023-05-13T04:35:41.771Z,11.79
2023-05-13T04:38:44.367Z,11.85
2023-05-13T04:41:48.442Z,11.93
2023-05-13T04:44:51.115Z,11.78
2023-05-13T04:47:54.892Z,11.78
2023-05-13T04:50:58.769Z,12.10
2023-05-13T04:54:01.916Z,12.15
2023-05-13T04:57:06.559Z,12.16
2023-05-13T05:00:10.695Z,12.33
2023-05-13T05:03:13.322Z,12.39
2023-05-13T05:06:15.959Z,12.48
2023-05-13T05:09:18.886Z,12.61
2023-05-13T05:12:22.849Z,12.68
2023-05-13T05:15:25.517Z,12.45
2023-05-13T05:18:28.214Z,12.78
2023-05-13T05:21:30.856Z,12.76
2023-05-13T05:24:33.482Z,12.93
2023-05-13T05:27:37.435Z,13.14
2023-05-13T05:30:40.379Z,13.28
2023-05-13T05:33:43.134Z,13.31
2023-05-13T05:36:45.766Z,13.47
2023-05-13T05:39:48.349Z,13.54
2023-05-13T05:42:52.297Z,13.59
2023-05-13T05:45:54.953Z,13.80
2023-05-13T05:48:57.562Z,13.95
2023-05-13T05:52:00.188Z,14.02
2023-05-13T05:55:03.381Z,14.05
2023-05-13T05:58:07.391Z,14.14
2023-05-13T06:01:10.270Z,14.49
2023-05-13T06:04:13.050Z,14.76
2023-05-13T06:07:15.797Z,14.99
2023-05-13T06:10:18.452Z,14.95
2023-05-13T06:13:22.486Z,15.28
2023-05-13T06:16:25.403Z,15.32
2023-05-13T06:19:28.031Z,15.33
2023-05-13T06:22:30.726Z,15.66
2023-05-13T06:25:33.405Z,15.77
2023-05-13T06:28:37.314Z,15.80
2023-05-13T06:31:39.936Z,15.94
2023-05-13T06:34:45.606Z,16.19
2023-05-13T06:37:48.178Z,16.28
2023-05-13T06:40:50.746Z,16.34
2023-05-13T06:43:54.666Z,16.65
2023-05-13T06:46:57.259Z,16.62
2023-05-13T06:49:59.864Z,16.67
2023-05-13T06:53:03.592Z,16.85
2023-05-13T06:56:06.722Z,17.06
2023-05-13T06:59:10.768Z,17.21
2023-05-13T07:02:13.366Z,17.23
2023-05-13T07:05:15.982Z,17.24
2023-05-13T07:08:18.831Z,17.54
2023-05-13T07:11:22.378Z,17.50
2023-05-13T07:14:26.326Z,17.74
2023-05-13T07:17:29.207Z,17.78
2023-05-13T07:20:31.849Z,18.08
2023-05-13T07:23:35.730Z,18.14
2023-05-13T07:26:38.745Z,18.41
2023-05-13T07:29:42.690Z,18.43
2023-05-13T07:32:45.343Z,18.53
2023-05-13T07:35:47.968Z,18.62
2023-05-13T07:38:50.978Z,18.74
2023-05-13T07:41:53.588Z,18.88
2023-05-13T07:44:57.542Z,19.10
2023-05-13T07:48:00.227Z,18.94
2023-05-13T07:51:02.949Z,19.18
2023-05-13T07:54:05.604Z,19.40
2023-05-13T07:57:08.287Z,19.47
2023-05-13T08:00:13.242Z,19.74
2023-05-13T08:03:16.055Z,19.90
2023-05-13T08:06:18.740Z,19.89
2023-05-13T08:09:21.335Z,20.08
2023-05-13T08:12:23.954Z,20.39
2023-05-13T08:15:28.979Z,20.46
2023-05-13T08:18:31.578Z,20.71
2023-05-13T08:21:34.213Z,20.77
2023-05-13T08:24:36.764Z,20.98
2023-05-13T08:27:39.414Z,21.00
2023-05-13T08:30:44.295Z,21.30
2023-05-13T08:33:48.499Z,21.42
2023-05-13T08:36:51.092Z,21.71
2023-05-13T08:39:55.901Z,21.94
2023-05-13T08:43:00.535Z,21.52
2023-05-13T08:46:05.235Z,21.86
2023-05-13T08:49:09.385Z,22.14
2023-05-13T08:52:12.075Z,22.07
2023-05-13T08:55:15.605Z,22.43
2023-05-13T08:58:18.207Z,22.23
2023-05-13T09:01:23.974Z,22.39
2023-05-13T09:04:26.957Z,22.53
2023-05-13T09:07:31.468Z,22.64
2023-05-13T09:10:34.055Z,22.88
2023-05-13T09:13:37.350Z,23.25
2023-05-13T09:16:41.331Z,23.37
2023-05-13T09:19:44.051Z,23.91
2023-05-13T09:22:48.113Z,24.02
2023-05-13T09:25:50.771Z,24.44
2023-05-13T09:29:17.773Z,24.32
2023-05-13T09:32:21.729Z,23.61
2023-05-13T09:35:24.317Z,24.19
2023-05-13T09:38:29.005Z,24.09
2023-05-13T09:41:32.378Z,24.54
2023-05-13T09:44:35.067Z,24.53
2023-05-13T09:47:39.182Z,25.11
2023-05-13T09:50:48.643Z,25.38
2023-05-13T09:53:51.220Z,26.08
2023-05-13T09:56:59.504Z,25.91
2023-05-13T10:00:05.155Z,25.67
2023-05-13T10:03:09.542Z,25.32
2023-05-13T10:06:12.282Z,26.02
2023-05-13T10:09:17.493Z,26.62
2023-05-13T10:12:22.121Z,27.16
2023-05-13T10:15:25.914Z,26.53
2023-05-13T10:18:30.279Z,26.91
2023-05-13T10:21:33.540Z,26.78
2023-05-13T10:24:38.686Z,27.30
2023-05-13T10:27:43.244Z,27.48
2023-05-13T10:30:46.606Z,27.75
2023-05-13T10:33:53.257Z,28.05
2023-05-13T10:37:10.850Z,27.86
2023-05-13T10:40:30.135Z,27.88
2023-05-13T10:43:33.111Z,28.62
2023-05-13T10:46:39.251Z,28.01
2023-05-13T10:49:51.850Z,28.14
2023-05-13T10:52:58.211Z,28.48
2023-05-13T10:56:01.038Z,28.68
2023-05-13T10:59:05.461Z,28.84
2023-05-13T11:02:22.002Z,29.41
2023-05-13T11:05:26.168Z,29.49
2023-05-13T11:08:38.880Z,29.92
2023-05-13T11:11:41.851Z,29.71
2023-05-13T11:14:44.981Z,28.60
2023-05-13T11:17:47.686Z,29.48
2023-05-13T11:20:55.070Z,29.96
2023-05-13T11:23:59.188Z,29.66
2023-05-13T11:27:14.588Z,30.05
2023-05-13T11:30:24.186Z,30.79
2023-05-13T11:34:02.008Z,31.19
2023-05-13T11:37:11.482Z,30.36
2023-05-13T11:40:22.731Z,30.38
2023-05-13T11:43:25.662Z,30.43
2023-05-13T11:46:28.335Z,30.57
2023-05-13T11:49:39.705Z,30.85
2023-05-13T11:52:43.721Z,31.24
2023-05-13T11:55:46.582Z,31.48
2023-05-13T11:58:49.370Z,31.55
2023-05-13T12:02:02.086Z,31.50
2023-05-13T12:05:06.119Z,31.06
2023-05-13T12:08:11.854Z,30.65
2023-05-13T12:11:14.956Z,31.16
2023-05-13T12:14:18.240Z,31.38
2023-05-13T12:17:22.285Z,31.44
2023-05-13T12:20:25.715Z,31.24
2023-05-13T12:23:39.794Z,31.13
2023-05-13T12:26:42.796Z,31.25
2023-05-13T12:29:45.394Z,30.99
2023-05-13T12:32:48.029Z,32.01
2023-05-13T12:35:52.424Z,31.20
2023-05-13T12:39:00.234Z,31.65
2023-05-13T12:42:03.290Z,31.49
2023-05-13T12:45:07.207Z,31.79
2023-05-13T12:48:10.137Z,30.08
2023-05-13T12:51:12.767Z,29.09
2023-05-13T12:54:16.703Z,28.47
2023-05-13T12:57:20.509Z,27.11
2023-05-13T13:00:23.335Z,26.51
2023-05-13T13:03:26.098Z,26.23
2023-05-13T13:06:29.938Z,27.40
2023-05-13T13:09:33.900Z,28.08
2023-05-13T13:12:36.484Z,28.90
2023-05-13T13:15:39.336Z,28.80
2023-05-13T13:18:42.566Z,29.11
2023-05-13T13:21:45.189Z,29.31
2023-05-13T13:24:49.150Z,29.41
2023-05-13T13:27:51.784Z,29.11
2023-05-13T13:30:54.515Z,29.55
2023-05-13T13:33:58.897Z,28.26
2023-05-13T13:37:01.540Z,27.52
2023-05-13T13:40:06.499Z,27.24
2023-05-13T13:43:09.456Z,27.02
2023-05-13T13:46:12.076Z,26.92
2023-05-13T13:49:23.232Z,26.29
2023-05-13T13:52:28.467Z,26.01
2023-05-13T13:55:32.455Z,25.71
2023-05-13T13:58:35.389Z,25.56
2023-05-13T14:01:39.406Z,25.66
2023-05-13T14:04:42.078Z,26.36
2023-05-13T14:07:44.696Z,26.94
2023-05-13T14:10:48.720Z,27.71
2023-05-13T14:13:51.326Z,27.47
2023-05-13T14:16:53.994Z,27.01
2023-05-13T14:19:56.610Z,26.16
2023-05-13T14:22:59.237Z,25.75
2023-05-13T14:26:03.241Z,26.08
2023-05-13T14:29:05.856Z,25.87
2023-05-13T14:32:08.783Z,25.32
2023-05-13T14:35:11.389Z,25.37
2023-05-13T14:38:13.980Z,24.99
2023-05-13T14:41:19.817Z,24.60
2023-05-13T14:44:22.470Z,24.25
2023-05-13T14:47:25.451Z,24.51
2023-05-13T14:50:28.073Z,24.37
2023-05-13T14:53:30.718Z,24.09
2023-05-13T14:56:34.719Z,24.22
2023-05-13T14:59:37.388Z,24.27
2023-05-13T15:02:40.172Z,24.08
2023-05-13T15:05:44.144Z,24.14
2023-05-13T15:08:46.991Z,24.27
2023-05-13T15:11:50.969Z,24.23
2023-05-13T15:14:54.137Z,23.75
2023-05-13T15:17:56.769Z,24.14
2023-05-13T15:20:59.427Z,23.98
2023-05-13T15:24:02.019Z,24.05
2023-05-13T15:27:06.572Z,24.19
2023-05-13T15:30:09.920Z,24.11
2023-05-13T15:33:12.586Z,24.21
2023-05-13T15:36:15.256Z,24.13
2023-05-13T15:39:18.036Z,24.08
2023-05-13T15:42:23.006Z,24.10
2023-05-13T15:45:25.639Z,23.93
2023-05-13T15:48:28.402Z,23.72
2023-05-13T15:51:31.611Z,23.61
2023-05-13T15:54:34.874Z,23.48
2023-05-13T15:57:39.701Z,23.57
2023-05-13T16:00:42.362Z,23.29
2023-05-13T16:03:45.032Z,23.41
2023-05-13T16:06:47.628Z,23.43
2023-05-13T16:09:50.188Z,23.54
2023-05-13T16:12:54.118Z,23.64
2023-05-13T16:15:56.954Z,23.43
2023-05-13T16:18:59.628Z,23.37
2023-05-13T16:22:25.196Z,23.28
2023-05-13T16:25:27.826Z,23.00
2023-05-13T16:28:31.849Z,23.24
2023-05-13T16:31:34.730Z,23.22
2023-05-13T16:34:37.406Z,23.17
2023-05-13T16:37:40.002Z,22.98
2023-05-13T16:40:42.648Z,22.94
2023-05-13T16:43:46.575Z,23.04
2023-05-13T16:46:49.176Z,22.90
2023-05-13T16:49:51.756Z,22.66
2023-05-13T16:52:54.486Z,22.60
2023-05-13T16:55:57.142Z,22.35
2023-05-13T16:59:01.146Z,22.23
2023-05-13T17:02:03.788Z,22.28
2023-05-13T17:05:07.241Z,22.51
2023-05-13T17:08:09.908Z,22.31
2023-05-13T17:11:16.526Z,22.24
2023-05-13T17:14:20.651Z,22.16
2023-05-13T17:17:23.238Z,22.19
2023-05-13T17:20:25.904Z,22.23
2023-05-13T17:23:28.484Z,22.35
2023-05-13T17:26:31.163Z,22.08
2023-05-13T17:29:35.102Z,21.95
2023-05-13T17:32:37.732Z,22.04
2023-05-13T17:35:40.468Z,22.07
2023-05-13T17:38:43.199Z,21.90
2023-05-13T17:41:46.053Z,21.78
2023-05-13T17:44:50.009Z,21.70
2023-05-13T17:47:52.746Z,21.92
2023-05-13T17:50:55.492Z,21.92
2023-05-13T17:53:58.095Z,21.89
2023-05-13T17:57:00.727Z,21.77
2023-05-13T18:00:06.884Z,21.77
2023-05-13T18:03:09.886Z,21.67
2023-05-13T18:06:12.599Z,21.61
2023-05-13T18:09:15.186Z,21.38
2023-05-13T18:12:18.116Z,21.26
2023-05-13T18:15:22.053Z,21.26
2023-05-13T18:18:24.738Z,21.15
2023-05-13T18:21:28.800Z,21.01
2023-05-13T18:24:31.370Z,20.94
2023-05-13T18:27:33.976Z,20.80
2023-05-13T18:30:37.937Z,20.69
2023-05-13T18:33:40.655Z,20.61
2023-05-13T18:36:43.322Z,20.47
2023-05-13T18:39:45.916Z,20.32
2023-05-13T18:42:48.565Z,20.15
2023-05-13T18:45:53.199Z,19.96
2023-05-13T18:48:56.580Z,19.78
2023-05-13T18:51:59.358Z,19.66
2023-05-13T18:55:04.106Z,19.50
2023-05-13T18:58:06.672Z,19.39
2023-05-13T19:01:10.711Z,19.30
2023-05-13T19:04:15.200Z,19.18
2023-05-13T19:07:17.963Z,19.07
2023-05-13T19:10:20.687Z,19.06
2023-05-13T19:13:25.391Z,18.94
2023-05-13T19:16:32.735Z,18.82
2023-05-13T19:19:35.412Z,18.72
2023-05-13T19:22:38.411Z,18.63
2023-05-13T19:25:42.677Z,18.52
2023-05-13T19:28:47.016Z,18.43
2023-05-13T19:31:50.996Z,18.31
2023-05-13T19:34:53.677Z,18.26
2023-05-13T19:37:56.760Z,18.11
2023-05-13T19:40:59.364Z,18.06
2023-05-13T19:44:02.349Z,18.05
2023-05-13T19:47:06.536Z,17.86
2023-05-13T19:50:09.726Z,17.74
2023-05-13T19:53:12.537Z,17.73
2023-05-13T19:56:15.200Z,17.64
2023-05-13T19:59:17.786Z,17.64
2023-05-13T20:02:22.043Z,17.73
2023-05-13T20:05:24.656Z,17.70
2023-05-13T20:08:29.488Z,17.69
2023-05-13T20:11:32.546Z,17.55
2023-05-13T20:14:45.546Z,17.59
2023-05-13T20:17:49.639Z,17.50
2023-05-13T20:20:53.596Z,17.37
2023-05-13T20:23:56.391Z,17.23
2023-05-13T20:26:58.969Z,17.15
2023-05-13T20:30:02.046Z,17.14
2023-05-13T20:33:06.406Z,17.08
2023-05-13T20:36:09.123Z,16.96
2023-05-13T20:39:11.704Z,16.91
2023-05-13T20:42:14.298Z,16.88
2023-05-13T20:45:16.892Z,16.89
2023-05-13T20:48:20.831Z,16.72
2023-05-13T20:51:23.546Z,16.70
2023-05-13T20:54:26.184Z,16.61
2023-05-13T20:57:28.811Z,16.49
2023-05-13T21:00:31.421Z,16.44
2023-05-13T21:03:35.453Z,16.54
2023-05-13T21:06:38.192Z,16.44
2023-05-13T21:09:40.843Z,16.36
2023-05-13T21:12:47.492Z,16.31
2023-05-13T21:15:51.904Z,16.40
2023-05-13T21:18:56.076Z,16.26
2023-05-13T21:21:58.685Z,16.34
2023-05-13T21:25:01.298Z,16.26
2023-05-13T21:28:04.788Z,16.11
2023-05-13T21:31:07.453Z,16.02
2023-05-13T21:34:11.428Z,15.94
2023-05-13T21:37:14.291Z,15.89
2023-05-13T21:40:17.234Z,15.80
2023-05-13T21:43:19.856Z,15.76
2023-05-13T21:46:22.495Z,15.76
2023-05-13T21:49:26.489Z,15.80
2023-05-13T21:52:29.228Z,15.77
2023-05-13T21:55:34.718Z,15.81
2023-05-13T21:58:37.361Z,15.70
2023-05-13T22:01:39.957Z,15.73
2023-05-13T22:04:43.983Z,15.71
2023-05-13T22:07:46.611Z,15.67
2023-05-13T22:10:49.168Z,15.78
2023-05-13T22:13:51.858Z,15.68
2023-05-13T22:17:07.806Z,15.63
2023-05-13T22:20:13.855Z,15.62
2023-05-13T22:23:16.807Z,15.52
2023-05-13T22:26:19.421Z,15.52
2023-05-13T22:29:22.397Z,15.43
2023-05-13T22:32:25.404Z,15.40
2023-05-13T22:35:29.753Z,15.32
2023-05-13T22:38:32.318Z,15.31
2023-05-13T22:41:34.896Z,15.25
2023-05-13T22:44:37.977Z,15.11
2023-05-13T22:47:40.668Z,15.03
2023-05-13T22:50:44.679Z,15.03
2023-05-13T22:53:47.263Z,14.92
2023-05-13T22:56:49.817Z,14.83
2023-05-13T22:59:52.408Z,14.80
2023-05-13T23:02:55.052Z,14.85
2023-05-13T23:05:59.096Z,14.83
2023-05-13T23:09:01.721Z,14.76
2023-05-13T23:12:04.637Z,14.75
2023-05-13T23:15:08.364Z,14.71
2023-05-13T23:18:10.981Z,14.61
2023-05-13T23:21:14.958Z,14.52
2023-05-13T23:24:17.553Z,14.55
2023-05-13T23:27:20.161Z,14.54
2023-05-13T23:30:23.238Z,14.48
2023-05-13T23:33:26.163Z,14.39
2023-05-13T23:36:30.092Z,14.38
2023-05-13T23:39:32.757Z,14.31
2023-05-13T23:42:35.958Z,14.26
2023-05-13T23:45:38.652Z,14.20
2023-05-13T23:48:41.239Z,14.12
2023-05-13T23:51:45.422Z,14.15
2023-05-13T23:54:48.012Z,14.08
2023-05-13T23:57:50.788Z,14.06
